sensor_id;sensor_type;location;lat;lon;timestamp;temperature;humidity
35523;DHT22;61478;50.820;4.330;2022-08-01T00:00:12;21.20;99.90
35523;DHT22;61478;50.820;4.330;2022-08-01T00:02:40;21.20;99.90
35523;DHT22;61478;50.820;4.330;2022-08-01T00:05:09;21.10;99.90
35523;DHT22;61478;50.820;4.330;2022-08-01T00:07:39;21.10;99.90
35523;DHT22;61478;50.820;4.330;2022-08-01T00:10:13;21.10;99.90
35523;DHT22;61478;50.820;4.330;2022-08-01T00:12:41;21.10;99.90
35523;DHT22;61478;50.820;4.330;2022-08-01T00:15:12;21.10;99.90
35523;DHT22;61478;50.820;4.330;2022-08-01T00:17:43;21.20;99.90
35523;DHT22;61478;50.820;4.330;2022-08-01T00:20:13;21.10;99.90
35523;DHT22;61478;50.820;4.330;2022-08-01T00:22:42;21.10;99.90
35523;DHT22;61478;50.820;4.330;2022-08-01T00:25:11;21.10;99.90
35523;DHT22;61478;50.820;4.330;2022-08-01T00:27:41;21.20;99.90
35523;DHT22;61478;50.820;4.330;2022-08-01T00:30:10;21.20;99.90
35523;DHT22;61478;50.820;4.330;2022-08-01T00:32:42;21.30;99.90
35523;DHT22;61478;50.820;4.330;2022-08-01T00:35:14;21.30;99.90
35523;DHT22;61478;50.820;4.330;2022-08-01T00:37:44;21.30;99.90
35523;DHT22;61478;50.820;4.330;2022-08-01T00:40:10;21.20;99.90
35523;DHT22;61478;50.820;4.330;2022-08-01T00:42:43;21.20;99.90
35523;DHT22;61478;50.820;4.330;2022-08-01T00:45:14;21.40;99.90
35523;DHT22;61478;50.820;4.330;2022-08-01T00:47:44;21.30;99.90
35523;DHT22;61478;50.820;4.330;2022-08-01T00:50:11;21.30;99.90
35523;DHT22;61478;50.820;4.330;2022-08-01T00:52:39;21.30;99.90
35523;DHT22;61478;50.820;4.330;2022-08-01T00:55:10;21.20;99.90
35523;DHT22;61478;50.820;4.330;2022-08-01T00:57:44;21.20;99.90
35523;DHT22;61478;50.820;4.330;2022-08-01T01:00:14;21.20;99.90
35523;DHT22;61478;50.820;4.330;2022-08-01T01:02:43;21.20;99.90
35523;DHT22;61478;50.820;4.330;2022-08-01T01:05:12;21.10;99.90
35523;DHT22;61478;50.820;4.330;2022-08-01T01:07:59;21.00;99.90
35523;DHT22;61478;50.820;4.330;2022-08-01T01:10:46;21.10;99.90
35523;DHT22;61478;50.820;4.330;2022-08-01T01:16:06;21.20;99.90
35523;DHT22;61478;50.820;4.330;2022-08-01T01:19:00;21.10;99.90
35523;DHT22;61478;50.820;4.330;2022-08-01T01:21:35;21.00;99.90
35523;DHT22;61478;50.820;4.330;2022-08-01T01:24:31;21.00;99.90
35523;DHT22;61478;50.820;4.330;2022-08-01T01:27:12;21.00;99.90
35523;DHT22;61478;50.820;4.330;2022-08-01T01:29:50;21.00;99.90
35523;DHT22;61478;50.820;4.330;2022-08-01T01:32:36;21.00;99.90
35523;DHT22;61478;50.820;4.330;2022-08-01T01:35:15;21.00;99.90
35523;DHT22;61478;50.820;4.330;2022-08-01T01:37:44;20.90;99.90
35523;DHT22;61478;50.820;4.330;2022-08-01T01:40:14;20.90;99.90
35523;DHT22;61478;50.820;4.330;2022-08-01T01:42:46;20.90;99.90
35523;DHT22;61478;50.820;4.330;2022-08-01T01:45:18;20.80;99.90
35523;DHT22;61478;50.820;4.330;2022-08-01T01:47:45;20.80;99.90
35523;DHT22;61478;50.820;4.330;2022-08-01T01:50:21;20.70;99.90
35523;DHT22;61478;50.820;4.330;2022-08-01T01:52:54;20.70;99.90
35523;DHT22;61478;50.820;4.330;2022-08-01T01:55:29;20.60;99.90
35523;DHT22;61478;50.820;4.330;2022-08-01T01:57:59;20.60;99.90
35523;DHT22;61478;50.820;4.330;2022-08-01T02:00:30;20.50;99.90
35523;DHT22;61478;50.820;4.330;2022-08-01T02:03:05;20.60;99.90
35523;DHT22;61478;50.820;4.330;2022-08-01T02:05:35;20.60;99.90
35523;DHT22;61478;50.820;4.330;2022-08-01T02:08:04;20.70;99.90
35523;DHT22;61478;50.820;4.330;2022-08-01T02:10:35;20.60;99.90
35523;DHT22;61478;50.820;4.330;2022-08-01T02:13:08;20.50;99.90
35523;DHT22;61478;50.820;4.330;2022-08-01T02:15:37;20.50;99.90
35523;DHT22;61478;50.820;4.330;2022-08-01T02:18:07;20.50;99.90
35523;DHT22;61478;50.820;4.330;2022-08-01T02:20:36;20.60;99.90
35523;DHT22;61478;50.820;4.330;2022-08-01T02:23:14;20.70;99.90
35523;DHT22;61478;50.820;4.330;2022-08-01T02:25:49;20.80;99.90
35523;DHT22;61478;50.820;4.330;2022-08-01T02:28:28;20.70;99.90
35523;DHT22;61478;50.820;4.330;2022-08-01T02:31:01;20.60;99.90
35523;DHT22;61478;50.820;4.330;2022-08-01T02:33:38;20.60;99.90
35523;DHT22;61478;50.820;4.330;2022-08-01T02:36:05;20.60;99.90
35523;DHT22;61478;50.820;4.330;2022-08-01T02:38:36;20.60;99.90
35523;DHT22;61478;50.820;4.330;2022-08-01T02:41:09;20.50;99.90
35523;DHT22;61478;50.820;4.330;2022-08-01T02:43:43;20.50;99.90
35523;DHT22;61478;50.820;4.330;2022-08-01T02:46:50;20.50;99.90
35523;DHT22;61478;50.820;4.330;2022-08-01T02:49:15;20.50;99.90
35523;DHT22;61478;50.820;4.330;2022-08-01T02:51:46;20.50;99.90
35523;DHT22;61478;50.820;4.330;2022-08-01T02:54:15;20.50;99.90
35523;DHT22;61478;50.820;4.330;2022-08-01T02:56:47;20.40;99.90
35523;DHT22;61478;50.820;4.330;2022-08-01T02:59:17;20.50;99.90
35523;DHT22;61478;50.820;4.330;2022-08-01T03:01:53;20.50;99.90
35523;DHT22;61478;50.820;4.330;2022-08-01T03:04:24;20.50;99.90
35523;DHT22;61478;50.820;4.330;2022-08-01T03:06:56;20.50;99.90
35523;DHT22;61478;50.820;4.330;2022-08-01T03:09:26;20.40;99.90
35523;DHT22;61478;50.820;4.330;2022-08-01T03:11:59;20.40;99.90
35523;DHT22;61478;50.820;4.330;2022-08-01T03:14:27;20.40;99.90
35523;DHT22;61478;50.820;4.330;2022-08-01T03:16:59;20.40;99.90
35523;DHT22;61478;50.820;4.330;2022-08-01T03:19:30;20.40;99.90
35523;DHT22;61478;50.820;4.330;2022-08-01T03:22:01;20.40;99.90
35523;DHT22;61478;50.820;4.330;2022-08-01T03:24:33;20.40;99.90
35523;DHT22;61478;50.820;4.330;2022-08-01T03:27:04;20.20;99.90
35523;DHT22;61478;50.820;4.330;2022-08-01T03:29:32;20.20;99.90
35523;DHT22;61478;50.820;4.330;2022-08-01T03:32:02;20.20;99.90
35523;DHT22;61478;50.820;4.330;2022-08-01T03:34:31;20.20;99.90
35523;DHT22;61478;50.820;4.330;2022-08-01T03:40:05;20.20;99.90
35523;DHT22;61478;50.820;4.330;2022-08-01T03:42:39;20.20;99.90
35523;DHT22;61478;50.820;4.330;2022-08-01T03:45:19;20.10;99.90
35523;DHT22;61478;50.820;4.330;2022-08-01T03:47:55;20.10;99.90
35523;DHT22;61478;50.820;4.330;2022-08-01T03:50:23;20.10;99.90
35523;DHT22;61478;50.820;4.330;2022-08-01T03:52:55;20.00;99.90
35523;DHT22;61478;50.820;4.330;2022-08-01T03:55:28;20.00;99.90
35523;DHT22;61478;50.820;4.330;2022-08-01T03:58:00;20.00;99.90
35523;DHT22;61478;50.820;4.330;2022-08-01T04:00:33;20.00;99.90
35523;DHT22;61478;50.820;4.330;2022-08-01T04:03:07;20.00;99.90
35523;DHT22;61478;50.820;4.330;2022-08-01T04:05:41;20.00;99.90
35523;DHT22;61478;50.820;4.330;2022-08-01T04:08:10;20.10;99.90
35523;DHT22;61478;50.820;4.330;2022-08-01T04:10:47;20.20;99.90
35523;DHT22;61478;50.820;4.330;2022-08-01T04:13:22;20.20;99.90
35523;DHT22;61478;50.820;4.330;2022-08-01T04:15:51;20.20;99.90
35523;DHT22;61478;50.820;4.330;2022-08-01T04:18:18;20.10;99.90
35523;DHT22;61478;50.820;4.330;2022-08-01T04:20:50;20.20;99.90
35523;DHT22;61478;50.820;4.330;2022-08-01T04:23:23;20.20;99.90
35523;DHT22;61478;50.820;4.330;2022-08-01T04:25:54;20.30;99.90
35523;DHT22;61478;50.820;4.330;2022-08-01T04:28:27;20.10;99.90
35523;DHT22;61478;50.820;4.330;2022-08-01T04:30:57;20.10;99.90
35523;DHT22;61478;50.820;4.330;2022-08-01T04:33:30;20.10;99.90
35523;DHT22;61478;50.820;4.330;2022-08-01T04:35:58;20.10;99.90
35523;DHT22;61478;50.820;4.330;2022-08-01T04:38:28;20.00;99.90
35523;DHT22;61478;50.820;4.330;2022-08-01T04:40:59;20.00;99.90
35523;DHT22;61478;50.820;4.330;2022-08-01T04:43:27;20.00;99.90
35523;DHT22;61478;50.820;4.330;2022-08-01T04:45:58;19.90;99.90
35523;DHT22;61478;50.820;4.330;2022-08-01T04:48:25;20.00;99.90
35523;DHT22;61478;50.820;4.330;2022-08-01T04:50:57;20.00;99.90
35523;DHT22;61478;50.820;4.330;2022-08-01T04:53:26;20.30;99.90
35523;DHT22;61478;50.820;4.330;2022-08-01T04:56:00;20.60;99.90
35523;DHT22;61478;50.820;4.330;2022-08-01T04:58:30;20.80;99.90
35523;DHT22;61478;50.820;4.330;2022-08-01T05:01:02;20.80;99.90
35523;DHT22;61478;50.820;4.330;2022-08-01T05:03:31;21.00;99.90
35523;DHT22;61478;50.820;4.330;2022-08-01T05:06:00;21.00;99.90
35523;DHT22;61478;50.820;4.330;2022-08-01T05:08:30;21.00;99.90
35523;DHT22;61478;50.820;4.330;2022-08-01T05:10:59;21.30;99.90
35523;DHT22;61478;50.820;4.330;2022-08-01T05:13:31;21.50;99.90
35523;DHT22;61478;50.820;4.330;2022-08-01T05:16:00;21.40;99.90
35523;DHT22;61478;50.820;4.330;2022-08-01T05:18:30;21.30;99.90
35523;DHT22;61478;50.820;4.330;2022-08-01T05:20:59;21.50;99.90
35523;DHT22;61478;50.820;4.330;2022-08-01T05:23:28;21.70;99.90
35523;DHT22;61478;50.820;4.330;2022-08-01T05:25:57;21.80;99.90
35523;DHT22;61478;50.820;4.330;2022-08-01T05:28:28;21.70;99.90
35523;DHT22;61478;50.820;4.330;2022-08-01T05:30:58;21.90;99.90
35523;DHT22;61478;50.820;4.330;2022-08-01T05:33:30;22.10;99.90
35523;DHT22;61478;50.820;4.330;2022-08-01T05:36:01;22.20;99.90
35523;DHT22;61478;50.820;4.330;2022-08-01T05:38:32;22.30;99.90
35523;DHT22;61478;50.820;4.330;2022-08-01T05:41:01;22.10;99.90
35523;DHT22;61478;50.820;4.330;2022-08-01T05:43:30;22.20;99.90
35523;DHT22;61478;50.820;4.330;2022-08-01T05:45:59;22.30;99.90
35523;DHT22;61478;50.820;4.330;2022-08-01T05:48:28;22.40;99.90
35523;DHT22;61478;50.820;4.330;2022-08-01T05:50:58;22.50;99.90
35523;DHT22;61478;50.820;4.330;2022-08-01T05:53:30;22.40;99.90
35523;DHT22;61478;50.820;4.330;2022-08-01T05:56:00;22.30;99.90
35523;DHT22;61478;50.820;4.330;2022-08-01T05:58:29;22.20;99.90
35523;DHT22;61478;50.820;4.330;2022-08-01T06:00:58;22.30;99.90
35523;DHT22;61478;50.820;4.330;2022-08-01T06:03:28;22.40;99.90
35523;DHT22;61478;50.820;4.330;2022-08-01T06:05:57;22.50;99.90
35523;DHT22;61478;50.820;4.330;2022-08-01T06:08:27;22.60;99.90
35523;DHT22;61478;50.820;4.330;2022-08-01T06:10:58;22.60;99.90
35523;DHT22;61478;50.820;4.330;2022-08-01T06:13:27;22.60;99.90
35523;DHT22;61478;50.820;4.330;2022-08-01T06:15:56;22.70;99.90
35523;DHT22;61478;50.820;4.330;2022-08-01T06:18:24;22.70;99.90
35523;DHT22;61478;50.820;4.330;2022-08-01T06:20:53;22.70;99.90
35523;DHT22;61478;50.820;4.330;2022-08-01T06:23:22;22.50;99.90
35523;DHT22;61478;50.820;4.330;2022-08-01T06:25:55;22.50;99.90
35523;DHT22;61478;50.820;4.330;2022-08-01T06:28:24;22.70;99.90
35523;DHT22;61478;50.820;4.330;2022-08-01T06:30:52;22.70;99.90
35523;DHT22;61478;50.820;4.330;2022-08-01T06:33:19;22.80;99.90
35523;DHT22;61478;50.820;4.330;2022-08-01T06:35:51;22.90;99.90
35523;DHT22;61478;50.820;4.330;2022-08-01T06:38:20;22.90;99.90
35523;DHT22;61478;50.820;4.330;2022-08-01T06:40:50;22.90;99.90
35523;DHT22;61478;50.820;4.330;2022-08-01T06:43:19;22.90;99.90
35523;DHT22;61478;50.820;4.330;2022-08-01T06:45:51;23.00;99.90
35523;DHT22;61478;50.820;4.330;2022-08-01T06:48:19;23.00;99.90
35523;DHT22;61478;50.820;4.330;2022-08-01T06:50:50;23.00;99.90
35523;DHT22;61478;50.820;4.330;2022-08-01T06:53:34;23.00;99.90
35523;DHT22;61478;50.820;4.330;2022-08-01T06:56:04;22.90;99.90
35523;DHT22;61478;50.820;4.330;2022-08-01T06:58:36;22.50;99.90
35523;DHT22;61478;50.820;4.330;2022-08-01T07:01:03;22.60;99.90
35523;DHT22;61478;50.820;4.330;2022-08-01T07:03:34;22.90;99.90
35523;DHT22;61478;50.820;4.330;2022-08-01T07:06:04;23.10;99.90
35523;DHT22;61478;50.820;4.330;2022-08-01T07:08:33;23.20;99.90
35523;DHT22;61478;50.820;4.330;2022-08-01T07:11:00;23.30;99.90
35523;DHT22;61478;50.820;4.330;2022-08-01T07:13:27;23.20;99.90
35523;DHT22;61478;50.820;4.330;2022-08-01T07:15:56;23.20;99.90
35523;DHT22;61478;50.820;4.330;2022-08-01T07:18:25;23.40;99.90
35523;DHT22;61478;50.820;4.330;2022-08-01T07:20:54;23.40;99.90
35523;DHT22;61478;50.820;4.330;2022-08-01T07:23:24;23.50;99.90
35523;DHT22;61478;50.820;4.330;2022-08-01T07:25:54;22.90;99.90
35523;DHT22;61478;50.820;4.330;2022-08-01T07:28:20;22.70;99.90
35523;DHT22;61478;50.820;4.330;2022-08-01T07:30:49;22.70;99.90
35523;DHT22;61478;50.820;4.330;2022-08-01T07:33:15;22.80;99.90
35523;DHT22;61478;50.820;4.330;2022-08-01T07:35:44;22.90;99.90
35523;DHT22;61478;50.820;4.330;2022-08-01T07:38:17;23.20;99.90
35523;DHT22;61478;50.820;4.330;2022-08-01T07:40:46;23.50;99.90
35523;DHT22;61478;50.820;4.330;2022-08-01T07:43:17;23.70;99.90
35523;DHT22;61478;50.820;4.330;2022-08-01T07:45:46;23.90;99.90
35523;DHT22;61478;50.820;4.330;2022-08-01T07:48:16;24.10;99.90
35523;DHT22;61478;50.820;4.330;2022-08-01T07:50:46;24.20;99.90
35523;DHT22;61478;50.820;4.330;2022-08-01T07:53:16;24.20;99.90
35523;DHT22;61478;50.820;4.330;2022-08-01T07:55:45;24.40;99.90
35523;DHT22;61478;50.820;4.330;2022-08-01T07:58:17;24.40;99.90
35523;DHT22;61478;50.820;4.330;2022-08-01T08:00:46;24.30;99.90
35523;DHT22;61478;50.820;4.330;2022-08-01T08:03:21;24.10;99.90
35523;DHT22;61478;50.820;4.330;2022-08-01T08:05:50;24.30;99.90
35523;DHT22;61478;50.820;4.330;2022-08-01T08:08:16;24.50;99.90
35523;DHT22;61478;50.820;4.330;2022-08-01T08:10:44;23.60;99.90
35523;DHT22;61478;50.820;4.330;2022-08-01T08:13:13;23.20;99.90
35523;DHT22;61478;50.820;4.330;2022-08-01T08:15:44;23.00;99.90
35523;DHT22;61478;50.820;4.330;2022-08-01T08:18:11;23.70;99.90
35523;DHT22;61478;50.820;4.330;2022-08-01T08:20:42;24.50;99.90
35523;DHT22;61478;50.820;4.330;2022-08-01T08:23:12;25.50;99.90
35523;DHT22;61478;50.820;4.330;2022-08-01T08:26:00;26.10;99.90
35523;DHT22;61478;50.820;4.330;2022-08-01T08:28:29;26.90;99.90
35523;DHT22;61478;50.820;4.330;2022-08-01T08:30:59;27.40;99.90
35523;DHT22;61478;50.820;4.330;2022-08-01T08:33:25;27.40;99.90
35523;DHT22;61478;50.820;4.330;2022-08-01T08:35:54;27.30;99.90
35523;DHT22;61478;50.820;4.330;2022-08-01T08:38:20;27.20;99.90
35523;DHT22;61478;50.820;4.330;2022-08-01T08:40:47;26.60;99.90
35523;DHT22;61478;50.820;4.330;2022-08-01T08:43:16;26.40;99.90
35523;DHT22;61478;50.820;4.330;2022-08-01T08:45:43;26.40;99.90
35523;DHT22;61478;50.820;4.330;2022-08-01T08:48:12;26.20;99.90
35523;DHT22;61478;50.820;4.330;2022-08-01T08:50:45;26.20;99.90
35523;DHT22;61478;50.820;4.330;2022-08-01T08:53:18;26.40;99.90
35523;DHT22;61478;50.820;4.330;2022-08-01T08:55:48;26.20;99.90
35523;DHT22;61478;50.820;4.330;2022-08-01T08:58:22;26.40;99.90
35523;DHT22;61478;50.820;4.330;2022-08-01T09:00:53;26.50;99.90
35523;DHT22;61478;50.820;4.330;2022-08-01T09:03:20;27.00;99.90
35523;DHT22;61478;50.820;4.330;2022-08-01T09:05:47;27.30;99.90
35523;DHT22;61478;50.820;4.330;2022-08-01T09:08:18;27.50;99.90
35523;DHT22;61478;50.820;4.330;2022-08-01T09:10:48;26.70;99.90
35523;DHT22;61478;50.820;4.330;2022-08-01T09:13:16;26.70;99.90
35523;DHT22;61478;50.820;4.330;2022-08-01T09:15:48;26.70;99.90
35523;DHT22;61478;50.820;4.330;2022-08-01T09:18:36;26.60;99.90
35523;DHT22;61478;50.820;4.330;2022-08-01T09:21:16;26.70;99.90
35523;DHT22;61478;50.820;4.330;2022-08-01T09:23:45;27.20;99.90
35523;DHT22;61478;50.820;4.330;2022-08-01T09:26:14;27.70;99.90
35523;DHT22;61478;50.820;4.330;2022-08-01T09:28:45;27.80;99.90
35523;DHT22;61478;50.820;4.330;2022-08-01T09:31:17;28.20;99.90
35523;DHT22;61478;50.820;4.330;2022-08-01T09:33:58;28.30;99.90
35523;DHT22;61478;50.820;4.330;2022-08-01T09:36:50;28.50;99.90
35523;DHT22;61478;50.820;4.330;2022-08-01T09:39:27;28.80;99.90
35523;DHT22;61478;50.820;4.330;2022-08-01T09:41:55;28.80;99.90
35523;DHT22;61478;50.820;4.330;2022-08-01T09:44:38;28.50;99.90
35523;DHT22;61478;50.820;4.330;2022-08-01T09:47:04;27.50;99.90
35523;DHT22;61478;50.820;4.330;2022-08-01T09:49:33;27.60;99.90
35523;DHT22;61478;50.820;4.330;2022-08-01T09:52:21;27.60;99.90
35523;DHT22;61478;50.820;4.330;2022-08-01T09:55:02;27.30;99.90
35523;DHT22;61478;50.820;4.330;2022-08-01T09:57:31;27.30;99.90
35523;DHT22;61478;50.820;4.330;2022-08-01T09:59:59;27.70;99.90
35523;DHT22;61478;50.820;4.330;2022-08-01T10:02:38;27.70;99.90
35523;DHT22;61478;50.820;4.330;2022-08-01T10:05:09;27.90;99.90
35523;DHT22;61478;50.820;4.330;2022-08-01T10:07:54;28.00;99.90
35523;DHT22;61478;50.820;4.330;2022-08-01T10:10:21;28.00;99.90
35523;DHT22;61478;50.820;4.330;2022-08-01T10:12:52;27.70;99.90
35523;DHT22;61478;50.820;4.330;2022-08-01T10:15:21;27.50;99.90
35523;DHT22;61478;50.820;4.330;2022-08-01T10:17:59;27.70;99.90
35523;DHT22;61478;50.820;4.330;2022-08-01T10:20:33;28.00;99.90
35523;DHT22;61478;50.820;4.330;2022-08-01T10:23:02;28.10;99.90
35523;DHT22;61478;50.820;4.330;2022-08-01T10:25:34;28.20;99.90
35523;DHT22;61478;50.820;4.330;2022-08-01T10:28:09;28.20;99.90
35523;DHT22;61478;50.820;4.330;2022-08-01T10:30:36;28.00;99.90
35523;DHT22;61478;50.820;4.330;2022-08-01T10:33:02;28.00;99.90
35523;DHT22;61478;50.820;4.330;2022-08-01T10:35:29;28.10;99.90
35523;DHT22;61478;50.820;4.330;2022-08-01T10:37:57;27.90;99.90
35523;DHT22;61478;50.820;4.330;2022-08-01T10:40:26;26.90;99.90
35523;DHT22;61478;50.820;4.330;2022-08-01T10:42:56;26.70;99.90
35523;DHT22;61478;50.820;4.330;2022-08-01T10:45:23;26.40;99.90
35523;DHT22;61478;50.820;4.330;2022-08-01T10:47:53;26.10;99.90
35523;DHT22;61478;50.820;4.330;2022-08-01T10:50:39;25.90;99.90
35523;DHT22;61478;50.820;4.330;2022-08-01T10:53:24;26.10;99.90
35523;DHT22;61478;50.820;4.330;2022-08-01T10:58:28;27.00;99.90
35523;DHT22;61478;50.820;4.330;2022-08-01T11:06:36;27.90;99.90
35523;DHT22;61478;50.820;4.330;2022-08-01T11:12:03;28.40;99.90
35523;DHT22;61478;50.820;4.330;2022-08-01T11:17:41;27.50;99.90
35523;DHT22;61478;50.820;4.330;2022-08-01T11:20:22;27.30;99.90
35523;DHT22;61478;50.820;4.330;2022-08-01T11:30:44;29.00;99.30
35523;DHT22;61478;50.820;4.330;2022-08-01T11:33:12;29.20;98.70
35523;DHT22;61478;50.820;4.330;2022-08-01T11:36:20;29.10;98.10
35523;DHT22;61478;50.820;4.330;2022-08-01T11:41:33;28.90;99.10
35523;DHT22;61478;50.820;4.330;2022-08-01T11:45:04;28.70;99.40
35523;DHT22;61478;50.820;4.330;2022-08-01T11:47:05;28.60;99.50
35523;DHT22;61478;50.820;4.330;2022-08-01T11:49:47;28.90;98.60
35523;DHT22;61478;50.820;4.330;2022-08-01T11:52:30;29.20;98.90
35523;DHT22;61478;50.820;4.330;2022-08-01T11:57:29;29.50;97.80
35523;DHT22;61478;50.820;4.330;2022-08-01T11:59:58;29.70;94.80
35523;DHT22;61478;50.820;4.330;2022-08-01T12:02:32;29.10;95.40
35523;DHT22;61478;50.820;4.330;2022-08-01T12:05:07;28.80;96.40
35523;DHT22;61478;50.820;4.330;2022-08-01T12:07:35;28.80;96.10
35523;DHT22;61478;50.820;4.330;2022-08-01T12:10:10;29.10;96.70
35523;DHT22;61478;50.820;4.330;2022-08-01T12:12:43;28.90;94.80
35523;DHT22;61478;50.820;4.330;2022-08-01T12:15:10;28.50;95.70
35523;DHT22;61478;50.820;4.330;2022-08-01T12:17:46;28.50;95.90
35523;DHT22;61478;50.820;4.330;2022-08-01T12:20:20;28.80;95.80
35523;DHT22;61478;50.820;4.330;2022-08-01T12:22:46;29.00;94.70
35523;DHT22;61478;50.820;4.330;2022-08-01T12:25:16;29.20;95.00
35523;DHT22;61478;50.820;4.330;2022-08-01T12:27:44;29.20;94.60
35523;DHT22;61478;50.820;4.330;2022-08-01T12:30:20;28.70;95.30
35523;DHT22;61478;50.820;4.330;2022-08-01T12:32:50;28.50;96.60
35523;DHT22;61478;50.820;4.330;2022-08-01T12:35:21;28.60;96.40
35523;DHT22;61478;50.820;4.330;2022-08-01T12:37:50;28.60;95.90
35523;DHT22;61478;50.820;4.330;2022-08-01T12:40:22;29.00;94.90
35523;DHT22;61478;50.820;4.330;2022-08-01T12:42:53;29.30;94.70
35523;DHT22;61478;50.820;4.330;2022-08-01T12:45:24;29.50;93.80
35523;DHT22;61478;50.820;4.330;2022-08-01T12:47:54;29.60;94.00
35523;DHT22;61478;50.820;4.330;2022-08-01T12:50:25;29.50;94.40
35523;DHT22;61478;50.820;4.330;2022-08-01T12:52:56;28.60;94.80
35523;DHT22;61478;50.820;4.330;2022-08-01T12:55:23;28.40;95.70
35523;DHT22;61478;50.820;4.330;2022-08-01T12:58:04;28.50;95.90
35523;DHT22;61478;50.820;4.330;2022-08-01T13:00:35;28.80;95.80
35523;DHT22;61478;50.820;4.330;2022-08-01T13:03:10;29.10;95.30
35523;DHT22;61478;50.820;4.330;2022-08-01T13:05:51;29.40;94.50
35523;DHT22;61478;50.820;4.330;2022-08-01T13:08:25;29.60;94.10
35523;DHT22;61478;50.820;4.330;2022-08-01T13:11:11;29.80;92.90
35523;DHT22;61478;50.820;4.330;2022-08-01T13:13:51;29.90;92.90
35523;DHT22;61478;50.820;4.330;2022-08-01T13:16:20;29.90;92.30
35523;DHT22;61478;50.820;4.330;2022-08-01T13:18:54;29.70;92.80
35523;DHT22;61478;50.820;4.330;2022-08-01T13:21:30;29.70;93.50
35523;DHT22;61478;50.820;4.330;2022-08-01T13:24:07;29.40;93.70
35523;DHT22;61478;50.820;4.330;2022-08-01T13:26:52;29.40;93.60
35523;DHT22;61478;50.820;4.330;2022-08-01T13:29:43;29.30;93.40
35523;DHT22;61478;50.820;4.330;2022-08-01T13:32:20;29.10;93.30
35523;DHT22;61478;50.820;4.330;2022-08-01T13:34:47;29.10;93.00
35523;DHT22;61478;50.820;4.330;2022-08-01T13:37:16;29.00;93.80
35523;DHT22;61478;50.820;4.330;2022-08-01T13:39:45;28.80;94.30
35523;DHT22;61478;50.820;4.330;2022-08-01T13:42:16;28.70;94.30
35523;DHT22;61478;50.820;4.330;2022-08-01T13:44:45;28.60;94.60
35523;DHT22;61478;50.820;4.330;2022-08-01T13:47:12;28.50;94.50
35523;DHT22;61478;50.820;4.330;2022-08-01T13:49:41;28.40;95.20
35523;DHT22;61478;50.820;4.330;2022-08-01T13:52:10;28.50;94.30
35523;DHT22;61478;50.820;4.330;2022-08-01T13:54:39;28.70;93.30
35523;DHT22;61478;50.820;4.330;2022-08-01T13:57:06;28.80;94.70
35523;DHT22;61478;50.820;4.330;2022-08-01T13:59:35;28.70;93.50
35523;DHT22;61478;50.820;4.330;2022-08-01T14:02:01;28.20;94.00
35523;DHT22;61478;50.820;4.330;2022-08-01T14:04:28;28.40;93.30
35523;DHT22;61478;50.820;4.330;2022-08-01T14:06:57;28.60;94.00
35523;DHT22;61478;50.820;4.330;2022-08-01T14:09:28;28.70;93.40
35523;DHT22;61478;50.820;4.330;2022-08-01T14:12:01;28.70;92.20
35523;DHT22;61478;50.820;4.330;2022-08-01T14:14:34;28.70;92.00
35523;DHT22;61478;50.820;4.330;2022-08-01T14:17:04;28.60;91.70
35523;DHT22;61478;50.820;4.330;2022-08-01T14:19:35;28.50;91.90
35523;DHT22;61478;50.820;4.330;2022-08-01T14:22:07;28.40;92.00
35523;DHT22;61478;50.820;4.330;2022-08-01T14:24:35;28.30;93.10
35523;DHT22;61478;50.820;4.330;2022-08-01T14:27:07;28.50;92.10
35523;DHT22;61478;50.820;4.330;2022-08-01T14:29:36;28.60;92.10
35523;DHT22;61478;50.820;4.330;2022-08-01T14:32:08;28.60;92.20
35523;DHT22;61478;50.820;4.330;2022-08-01T14:34:40;28.70;92.20
35523;DHT22;61478;50.820;4.330;2022-08-01T14:37:09;28.80;93.40
35523;DHT22;61478;50.820;4.330;2022-08-01T14:39:42;28.70;92.30
35523;DHT22;61478;50.820;4.330;2022-08-01T14:42:11;28.70;93.20
35523;DHT22;61478;50.820;4.330;2022-08-01T14:44:41;28.70;92.90
35523;DHT22;61478;50.820;4.330;2022-08-01T14:47:10;28.60;92.80
35523;DHT22;61478;50.820;4.330;2022-08-01T14:49:39;28.50;91.90
35523;DHT22;61478;50.820;4.330;2022-08-01T14:52:09;28.60;91.40
35523;DHT22;61478;50.820;4.330;2022-08-01T14:54:38;28.50;91.50
35523;DHT22;61478;50.820;4.330;2022-08-01T14:57:07;28.40;91.70
35523;DHT22;61478;50.820;4.330;2022-08-01T14:59:36;28.50;91.10
35523;DHT22;61478;50.820;4.330;2022-08-01T15:02:06;28.60;91.30
35523;DHT22;61478;50.820;4.330;2022-08-01T15:04:36;28.60;90.70
35523;DHT22;61478;50.820;4.330;2022-08-01T15:07:05;28.50;91.50
35523;DHT22;61478;50.820;4.330;2022-08-01T15:09:35;28.40;91.70
35523;DHT22;61478;50.820;4.330;2022-08-01T15:12:07;28.40;90.50
35523;DHT22;61478;50.820;4.330;2022-08-01T15:14:33;28.40;90.80
35523;DHT22;61478;50.820;4.330;2022-08-01T15:17:17;28.50;91.10
35523;DHT22;61478;50.820;4.330;2022-08-01T15:19:51;28.60;91.90
35523;DHT22;61478;50.820;4.330;2022-08-01T15:22:17;28.70;91.70
35523;DHT22;61478;50.820;4.330;2022-08-01T15:24:47;28.80;91.30
35523;DHT22;61478;50.820;4.330;2022-08-01T15:27:16;28.90;92.40
35523;DHT22;61478;50.820;4.330;2022-08-01T15:29:46;29.00;92.90
35523;DHT22;61478;50.820;4.330;2022-08-01T15:32:15;29.00;91.40
35523;DHT22;61478;50.820;4.330;2022-08-01T15:34:47;29.10;91.40
35523;DHT22;61478;50.820;4.330;2022-08-01T15:37:14;28.60;90.20
35523;DHT22;61478;50.820;4.330;2022-08-01T15:39:47;28.80;91.00
35523;DHT22;61478;50.820;4.330;2022-08-01T15:42:17;28.90;90.80
35523;DHT22;61478;50.820;4.330;2022-08-01T15:44:43;29.00;90.50
35523;DHT22;61478;50.820;4.330;2022-08-01T15:47:12;28.90;89.00
35523;DHT22;61478;50.820;4.330;2022-08-01T15:49:42;28.80;91.00
35523;DHT22;61478;50.820;4.330;2022-08-01T15:52:11;28.80;90.50
35523;DHT22;61478;50.820;4.330;2022-08-01T15:54:39;28.80;89.40
35523;DHT22;61478;50.820;4.330;2022-08-01T15:57:11;28.60;89.90
35523;DHT22;61478;50.820;4.330;2022-08-01T15:59:40;28.50;88.20
35523;DHT22;61478;50.820;4.330;2022-08-01T16:02:09;28.60;89.50
35523;DHT22;61478;50.820;4.330;2022-08-01T16:04:39;28.80;89.40
35523;DHT22;61478;50.820;4.330;2022-08-01T16:07:08;28.80;91.20
35523;DHT22;61478;50.820;4.330;2022-08-01T16:09:40;28.80;90.00
35523;DHT22;61478;50.820;4.330;2022-08-01T16:12:12;28.80;90.00
35523;DHT22;61478;50.820;4.330;2022-08-01T16:14:41;28.80;91.00
35523;DHT22;61478;50.820;4.330;2022-08-01T16:17:08;28.90;90.60
35523;DHT22;61478;50.820;4.330;2022-08-01T16:19:37;28.80;89.70
35523;DHT22;61478;50.820;4.330;2022-08-01T16:22:07;28.50;88.60
35523;DHT22;61478;50.820;4.330;2022-08-01T16:24:33;28.50;89.70
35523;DHT22;61478;50.820;4.330;2022-08-01T16:27:01;28.60;88.40
35523;DHT22;61478;50.820;4.330;2022-08-01T16:29:28;28.70;87.40